createdAt,value
2022-07-27T00:00:13.562Z,55.54
2022-07-27T00:01:13.652Z,55.54
2022-07-27T00:02:13.926Z,55.54
2022-07-27T00:03:13.652Z,55.54
2022-07-27T00:04:13.798Z,55.83
2022-07-27T00:05:13.718Z,55.83
2022-07-27T00:06:13.750Z,55.52
2022-07-27T00:07:13.807Z,55.83
2022-07-27T00:08:13.813Z,55.74
2022-07-27T00:09:14.877Z,55.62
2022-07-27T00:10:13.876Z,55.93
2022-07-27T00:11:13.908Z,56.23
2022-07-27T00:12:13.937Z,56.41
2022-07-27T00:14:14.004Z,55.93
2022-07-27T00:16:14.176Z,55.64
2022-07-27T00:17:14.393Z,55.26
2022-07-27T00:18:14.148Z,55.54
2022-07-27T00:19:14.616Z,54.77
2022-07-27T00:20:14.193Z,55.93
2022-07-27T00:21:14.217Z,55.74
2022-07-27T00:22:14.267Z,55.26
2022-07-27T00:23:14.292Z,55.54
2022-07-27T00:24:14.617Z,55.44
2022-07-27T00:25:14.341Z,54.86
2022-07-27T00:26:14.374Z,55.26
2022-07-27T00:28:14.433Z,55.64
2022-07-27T00:29:14.934Z,55.32
2022-07-27T00:30:14.514Z,54.96
2022-07-27T00:31:14.895Z,55.06
2022-07-27T00:32:14.563Z,55.44
2022-07-27T00:33:17.059Z,55.83
2022-07-27T00:34:14.625Z,55.16
2022-07-27T00:35:14.660Z,55.83
2022-07-27T00:36:14.803Z,55.93
2022-07-27T00:37:14.720Z,55.64
2022-07-27T00:38:15.048Z,55.16
2022-07-27T00:39:15.127Z,55.26
2022-07-27T00:40:14.822Z,55.04
2022-07-27T00:41:14.852Z,55.06
2022-07-27T00:42:14.879Z,55.04
2022-07-27T00:43:14.908Z,55.35
2022-07-27T00:44:14.939Z,55.54
2022-07-27T00:45:15.269Z,54.84
2022-07-27T00:46:15.043Z,55.06
2022-07-27T00:47:15.032Z,55.54
2022-07-27T00:48:15.062Z,55.26
2022-07-27T00:49:15.798Z,55.35
2022-07-27T00:51:15.156Z,55.44
2022-07-27T00:52:15.493Z,55.06
2022-07-27T00:53:15.272Z,55.44
2022-07-27T00:54:15.259Z,55.52
2022-07-27T00:55:15.278Z,55.04
2022-07-27T00:56:15.314Z,54.77
2022-07-27T00:57:15.342Z,54.74
2022-07-27T00:58:15.387Z,54.48
2022-07-27T00:59:15.755Z,54.74
2022-07-27T01:00:15.440Z,55.16
2022-07-27T01:01:15.471Z,54.96
2022-07-27T01:02:19.277Z,54.84
2022-07-27T01:03:16.478Z,54.96
2022-07-27T01:04:15.570Z,54.96
2022-07-27T01:05:15.592Z,55.06
2022-07-27T01:06:15.927Z,54.86
2022-07-27T01:07:15.665Z,54.58
2022-07-27T01:08:15.774Z,54.86
2022-07-27T01:09:15.724Z,55.04
2022-07-27T01:10:15.755Z,55.32
2022-07-27T01:11:15.786Z,55.74
2022-07-27T01:12:15.815Z,55.71
2022-07-27T01:13:16.139Z,55.13
2022-07-27T01:14:15.874Z,54.74
2022-07-27T01:15:15.901Z,55.35
2022-07-27T01:16:15.998Z,55.83
2022-07-27T01:17:15.967Z,55.35
2022-07-27T01:18:15.998Z,55.32
2022-07-27T01:19:16.191Z,55.54
2022-07-27T01:20:16.368Z,55.22
2022-07-27T01:21:16.089Z,55.54
2022-07-27T01:22:16.122Z,55.64
2022-07-27T01:23:16.151Z,55.52
2022-07-27T01:24:16.184Z,55.74
2022-07-27T01:25:16.215Z,55.26
2022-07-27T01:26:16.253Z,55.54
2022-07-27T01:27:16.582Z,55.52
2022-07-27T01:28:16.308Z,55.74
2022-07-27T01:29:16.342Z,55.62
2022-07-27T01:30:16.370Z,55.44
2022-07-27T01:31:16.469Z,55.54
2022-07-27T01:32:16.438Z,54.67
2022-07-27T01:33:16.468Z,54.67
2022-07-27T01:36:16.860Z,55.64
2022-07-27T01:37:16.588Z,54.84
2022-07-27T01:38:16.722Z,54.84
2022-07-27T01:39:16.651Z,55.44
2022-07-27T01:40:16.846Z,55.64
2022-07-27T01:41:16.720Z,55.42
2022-07-27T01:42:16.744Z,55.22
2022-07-27T01:44:17.117Z,54.94
2022-07-27T01:46:16.934Z,54.77
2022-07-27T01:47:16.902Z,54.86
2022-07-27T01:48:16.937Z,54.74
2022-07-27T01:49:17.412Z,54.77
2022-07-27T01:50:16.995Z,54.58
2022-07-27T01:51:17.473Z,55.64
2022-07-27T01:52:17.057Z,54.96
2022-07-27T01:53:17.088Z,55.52
2022-07-27T01:54:17.131Z,55.42
2022-07-27T01:55:17.151Z,55.35
2022-07-27T01:56:17.200Z,55.42
2022-07-27T01:57:17.210Z,55.35
2022-07-27T01:58:17.548Z,55.26
2022-07-27T02:00:17.310Z,55.52
2022-07-27T02:01:17.491Z,54.94
2022-07-27T02:02:17.366Z,54.45
2022-07-27T02:03:17.396Z,54.84
2022-07-27T02:04:17.436Z,54.84
2022-07-27T02:05:17.816Z,54.64
2022-07-27T02:06:17.499Z,54.64
2022-07-27T02:07:17.520Z,54.74
2022-07-27T02:08:17.552Z,54.45
2022-07-27T02:09:17.586Z,54.94
2022-07-27T02:10:17.620Z,54.96
2022-07-27T02:11:17.651Z,54.74
2022-07-27T02:12:17.978Z,54.94
2022-07-27T02:13:23.098Z,54.96
2022-07-27T02:14:17.759Z,54.74
2022-07-27T02:15:17.786Z,54.86
2022-07-27T02:16:17.885Z,54.94
2022-07-27T02:19:18.285Z,54.84
2022-07-27T02:20:18.235Z,54.45
2022-07-27T02:21:17.967Z,54.45
2022-07-27T02:22:18.001Z,54.94
2022-07-27T02:23:18.029Z,54.94
2022-07-27T02:24:18.062Z,54.84
2022-07-27T02:25:18.092Z,54.67
2022-07-27T02:28:18.183Z,54.74
2022-07-27T02:29:18.527Z,54.84
2022-07-27T02:30:18.246Z,54.86
2022-07-27T02:31:18.309Z,54.55
2022-07-27T02:32:18.313Z,54.77
2022-07-27T02:33:18.406Z,54.94
2022-07-27T02:34:18.374Z,55.04
2022-07-27T02:35:20.283Z,55.52
2022-07-27T02:36:18.433Z,55.52
2022-07-27T02:37:18.463Z,55.16
2022-07-27T02:38:18.494Z,54.84
2022-07-27T02:39:18.522Z,54.74
2022-07-27T02:40:18.731Z,55.13
2022-07-27T02:41:18.594Z,55.13
2022-07-27T02:42:18.922Z,55.13
2022-07-27T02:43:18.668Z,55.42
2022-07-27T02:44:18.689Z,55.42
2022-07-27T02:45:18.713Z,55.04
2022-07-27T02:46:18.873Z,55.22
2022-07-27T02:47:18.788Z,55.13
2022-07-27T02:48:18.821Z,55.52
2022-07-27T02:49:19.194Z,55.62
2022-07-27T02:50:18.865Z,54.45
2022-07-27T02:51:18.896Z,55.42
2022-07-27T02:52:18.930Z,54.94
2022-07-27T02:53:18.964Z,55.13
2022-07-27T02:54:18.997Z,55.81
2022-07-27T02:55:19.023Z,55.90
2022-07-27T02:56:19.352Z,55.71
2022-07-27T02:57:19.081Z,55.62
2022-07-27T02:58:19.122Z,56.20
2022-07-27T02:59:19.159Z,55.81
2022-07-27T03:00:19.184Z,56.00
2022-07-27T03:01:19.271Z,56.29
2022-07-27T03:02:19.237Z,56.39
2022-07-27T03:03:19.577Z,55.81
2022-07-27T03:05:19.488Z,55.71
2022-07-27T03:06:19.376Z,55.62
2022-07-27T03:07:19.394Z,55.90
2022-07-27T03:08:19.423Z,56.00
2022-07-27T03:09:19.458Z,55.90
2022-07-27T03:11:19.824Z,55.90
2022-07-27T03:12:19.572Z,55.90
2022-07-27T03:13:19.581Z,55.32
2022-07-27T03:14:19.620Z,55.81
2022-07-27T03:15:19.643Z,55.71
2022-07-27T03:16:19.739Z,55.71
2022-07-27T03:17:19.702Z,55.71
2022-07-27T03:18:20.035Z,55.62
2022-07-27T03:19:19.846Z,55.90
2022-07-27T03:20:19.806Z,55.62
2022-07-27T03:21:19.835Z,55.90
2022-07-27T03:23:19.893Z,55.42
2022-07-27T03:24:19.925Z,55.62
2022-07-27T03:25:20.251Z,55.62
2022-07-27T03:26:19.987Z,55.62
2022-07-27T03:27:20.017Z,55.62
2022-07-27T03:28:20.045Z,55.42
2022-07-27T03:29:20.075Z,55.71
2022-07-27T03:30:20.121Z,55.90
2022-07-27T03:31:20.193Z,55.90
2022-07-27T03:32:20.467Z,55.62
2022-07-27T03:33:20.255Z,55.62
2022-07-27T03:34:20.228Z,55.81
2022-07-27T03:35:20.341Z,55.52
2022-07-27T03:36:20.791Z,55.71
2022-07-27T03:37:20.479Z,55.62
2022-07-27T03:38:20.355Z,55.62
2022-07-27T03:39:20.760Z,55.52
2022-07-27T03:40:20.500Z,55.62
2022-07-27T03:41:20.459Z,55.32
2022-07-27T03:42:20.494Z,55.71
2022-07-27T03:43:20.509Z,55.42
2022-07-27T03:44:20.542Z,55.71
2022-07-27T03:45:20.568Z,55.62
2022-07-27T03:46:21.045Z,55.62
2022-07-27T03:47:20.632Z,55.52
2022-07-27T03:48:20.663Z,55.32
2022-07-27T03:49:20.832Z,55.90
2022-07-27T03:50:20.733Z,56.00
2022-07-27T03:51:20.771Z,55.81
2022-07-27T03:52:20.786Z,55.71
2022-07-27T03:53:21.122Z,55.71
2022-07-27T03:55:20.896Z,55.81
2022-07-27T03:56:20.912Z,55.90
2022-07-27T03:57:20.942Z,55.81
2022-07-27T03:58:21.020Z,56.10
2022-07-27T03:59:20.997Z,55.90
2022-07-27T04:00:21.330Z,55.62
2022-07-27T04:01:21.202Z,55.62
2022-07-27T04:02:21.135Z,55.62
2022-07-27T04:03:21.129Z,56.10
2022-07-27T04:04:21.150Z,55.90
2022-07-27T04:05:21.181Z,55.71
2022-07-27T04:06:21.216Z,55.90
2022-07-27T04:07:21.541Z,55.71
2022-07-27T04:08:21.296Z,55.71
2022-07-27T04:09:21.390Z,56.29
2022-07-27T04:10:21.340Z,56.20
2022-07-27T04:11:21.366Z,55.81
2022-07-27T04:12:21.396Z,55.71
2022-07-27T04:13:21.427Z,55.90
2022-07-27T04:14:21.765Z,55.71
2022-07-27T04:15:21.503Z,55.71
2022-07-27T04:16:21.583Z,55.81
2022-07-27T04:17:55.961Z,55.81
2022-07-27T04:19:21.617Z,55.71
2022-07-27T04:20:22.095Z,56.10
2022-07-27T04:21:21.678Z,56.00
2022-07-27T04:23:21.791Z,56.00
2022-07-27T04:24:21.771Z,56.49
2022-07-27T04:25:21.804Z,56.59
2022-07-27T04:26:22.133Z,56.59
2022-07-27T04:27:21.859Z,56.10
2022-07-27T04:28:21.905Z,56.59
2022-07-27T04:29:22.410Z,56.00
2022-07-27T04:31:22.064Z,56.39
2022-07-27T04:32:22.339Z,56.59
2022-07-27T04:33:22.055Z,55.90
2022-07-27T04:34:22.088Z,56.59
2022-07-27T04:35:26.280Z,56.10
2022-07-27T04:36:22.154Z,56.20
2022-07-27T04:37:22.173Z,56.29
2022-07-27T04:38:22.199Z,56.20
2022-07-27T04:39:22.532Z,55.90
2022-07-27T04:40:22.265Z,56.39
2022-07-27T04:41:22.343Z,56.20
2022-07-27T04:42:22.386Z,56.10
2022-07-27T04:43:22.360Z,56.20
2022-07-27T04:44:22.385Z,56.20
2022-07-27T04:45:22.429Z,56.20
2022-07-27T04:46:22.820Z,56.10
2022-07-27T04:47:22.480Z,56.00
2022-07-27T04:48:22.509Z,56.10
2022-07-27T04:50:22.576Z,56.00
2022-07-27T04:51:22.606Z,56.00
2022-07-27T04:52:26.487Z,56.10
2022-07-27T04:53:22.963Z,56.10
2022-07-27T04:54:22.698Z,56.20
2022-07-27T04:55:22.732Z,56.00
2022-07-27T04:56:22.756Z,56.20
2022-07-27T04:57:22.787Z,56.20
2022-07-27T04:58:22.825Z,56.20
2022-07-27T04:59:22.850Z,55.81
2022-07-27T05:00:23.178Z,56.39
2022-07-27T05:01:23.174Z,56.00
2022-07-27T05:02:23.207Z,55.90
2022-07-27T05:03:22.976Z,56.10
2022-07-27T05:04:23.088Z,55.62
2022-07-27T05:05:23.044Z,56.20
2022-07-27T05:06:23.068Z,56.10
2022-07-27T05:07:23.397Z,56.59
2022-07-27T05:08:23.134Z,56.00
2022-07-27T05:09:23.188Z,56.49
2022-07-27T05:10:23.192Z,56.10
2022-07-27T05:11:23.220Z,56.29
2022-07-27T05:12:23.257Z,56.10
2022-07-27T05:13:23.279Z,56.10
2022-07-27T05:14:23.621Z,56.10
2022-07-27T05:15:23.339Z,55.62
2022-07-27T05:16:28.315Z,56.29
2022-07-27T05:17:23.411Z,56.39
2022-07-27T05:18:23.443Z,56.49
2022-07-27T05:19:23.468Z,56.68
2022-07-27T05:20:23.502Z,56.68
2022-07-27T05:21:23.839Z,56.59
2022-07-27T05:23:23.639Z,56.59
2022-07-27T05:24:23.624Z,56.59
2022-07-27T05:25:23.750Z,56.20
2022-07-27T05:26:23.687Z,55.81
2022-07-27T05:27:23.718Z,56.39
2022-07-27T05:28:24.043Z,56.29
2022-07-27T05:29:23.779Z,56.29
2022-07-27T05:30:23.818Z,56.29
2022-07-27T05:31:23.913Z,56.39
2022-07-27T05:32:23.870Z,56.39
2022-07-27T05:33:23.924Z,56.59
2022-07-27T05:34:24.071Z,56.49
2022-07-27T05:35:24.261Z,56.39
2022-07-27T05:36:24.003Z,56.68
2022-07-27T05:37:24.027Z,56.59
2022-07-27T05:38:24.055Z,56.49
2022-07-27T05:39:24.089Z,56.39
2022-07-27T05:40:24.149Z,56.29
2022-07-27T05:41:24.146Z,56.20
2022-07-27T05:42:24.486Z,56.49
2022-07-27T05:43:24.211Z,56.59
2022-07-27T05:44:24.246Z,56.59
2022-07-27T05:45:24.322Z,56.20
2022-07-27T05:46:25.598Z,56.39
2022-07-27T05:47:24.332Z,56.29
2022-07-27T05:48:24.376Z,56.59
2022-07-27T05:49:24.762Z,56.49
2022-07-27T05:50:24.427Z,56.59
2022-07-27T05:51:24.456Z,56.20
2022-07-27T05:52:24.497Z,56.29
2022-07-27T05:53:24.550Z,56.29
2022-07-27T05:54:24.548Z,56.87
2022-07-27T05:55:24.577Z,56.49
2022-07-27T05:56:24.919Z,56.39
2022-07-27T05:57:24.755Z,56.59
2022-07-27T05:58:24.772Z,56.00
2022-07-27T05:59:24.700Z,56.39
2022-07-27T06:02:24.897Z,56.29
2022-07-27T06:03:25.252Z,56.20
2022-07-27T06:04:24.860Z,56.49
2022-07-27T06:05:24.886Z,55.81
2022-07-27T06:06:24.976Z,55.71
2022-07-27T06:07:24.950Z,56.10
2022-07-27T06:08:24.992Z,56.39
2022-07-27T06:09:25.312Z,56.39
2022-07-27T06:10:25.075Z,56.39
2022-07-27T06:11:25.071Z,56.49
2022-07-27T06:12:30.243Z,56.39
2022-07-27T06:13:28.328Z,56.39
2022-07-27T06:15:25.528Z,56.29
2022-07-27T06:16:25.255Z,56.68
2022-07-27T06:17:25.256Z,56.59
2022-07-27T06:18:25.288Z,56.77
2022-07-27T06:19:25.315Z,56.59
2022-07-27T06:20:25.365Z,56.49
2022-07-27T06:21:25.680Z,56.39
2022-07-27T06:22:25.416Z,56.59
2022-07-27T06:23:25.438Z,56.49
2022-07-27T06:24:25.474Z,56.59
2022-07-27T06:25:33.809Z,56.39
2022-07-27T06:26:25.534Z,56.59
2022-07-27T06:27:29.442Z,56.68
2022-07-27T06:28:25.894Z,56.68
2022-07-27T06:29:25.646Z,56.77
2022-07-27T06:30:25.662Z,56.49
2022-07-27T06:31:25.769Z,56.59
2022-07-27T06:34:25.784Z,56.41
2022-07-27T06:35:26.111Z,56.39
2022-07-27T06:36:25.852Z,56.49
2022-07-27T06:37:25.979Z,56.29
2022-07-27T06:38:25.943Z,56.39
2022-07-27T06:39:25.937Z,56.29
2022-07-27T06:40:29.536Z,56.59
2022-07-27T06:41:26.002Z,56.59
2022-07-27T06:42:26.327Z,56.41
2022-07-27T06:43:26.073Z,56.59
2022-07-27T06:45:26.120Z,56.61
2022-07-27T06:46:26.227Z,56.59
2022-07-27T06:47:28.908Z,56.41
2022-07-27T06:48:26.217Z,56.32
2022-07-27T06:49:26.724Z,56.71
2022-07-27T06:50:26.326Z,56.49
2022-07-27T06:51:26.305Z,56.59
2022-07-27T06:52:26.361Z,56.61
2022-07-27T06:53:26.370Z,56.32
2022-07-27T06:54:26.414Z,56.39
2022-07-27T06:55:26.431Z,56.51
2022-07-27T06:56:26.784Z,56.32
2022-07-27T06:58:26.535Z,56.41
2022-07-27T06:59:26.607Z,56.49
2022-07-27T07:00:26.803Z,56.68
2022-07-27T07:01:26.742Z,56.81
2022-07-27T07:03:27.012Z,56.41
2022-07-27T07:04:26.712Z,56.71
2022-07-27T07:05:26.748Z,56.51
2022-07-27T07:06:26.772Z,56.41
2022-07-27T07:07:26.795Z,56.51
2022-07-27T07:08:26.886Z,56.61
2022-07-27T07:09:26.858Z,56.61
2022-07-27T07:10:27.249Z,56.81
2022-07-27T07:11:26.918Z,56.61
2022-07-27T07:12:26.972Z,56.61
2022-07-27T07:13:27.028Z,56.61
2022-07-27T07:14:27.041Z,56.23
2022-07-27T07:15:27.065Z,56.51
2022-07-27T07:16:27.206Z,56.71
2022-07-27T07:17:27.412Z,56.41
2022-07-27T07:18:27.167Z,56.23
2022-07-27T07:19:27.166Z,56.81
2022-07-27T07:20:27.228Z,56.32
2022-07-27T07:21:27.229Z,56.51
2022-07-27T07:22:27.272Z,56.71
2022-07-27T07:23:27.299Z,56.61
2022-07-27T07:24:27.631Z,56.51
2022-07-27T07:26:27.387Z,56.32
2022-07-27T07:27:27.415Z,56.51
2022-07-27T07:28:27.446Z,56.71
2022-07-27T07:29:27.487Z,56.61
2022-07-27T07:30:27.508Z,56.41
2022-07-27T07:31:27.974Z,56.81
2022-07-27T07:32:33.280Z,56.71
2022-07-27T07:33:27.604Z,56.71
2022-07-27T07:34:27.650Z,56.32
2022-07-27T07:35:27.665Z,56.81
2022-07-27T07:36:27.695Z,56.71
2022-07-27T07:37:31.658Z,56.81
2022-07-27T07:38:28.059Z,56.32
2022-07-27T07:39:31.400Z,56.61
2022-07-27T07:40:44.971Z,56.41
2022-07-27T07:41:27.854Z,56.32
2022-07-27T07:42:27.879Z,56.51
2022-07-27T07:43:27.912Z,56.41
2022-07-27T07:44:27.945Z,56.41
2022-07-27T07:45:28.273Z,56.51
2022-07-27T07:46:28.052Z,56.61
2022-07-27T07:47:28.037Z,56.61
2022-07-27T07:48:28.064Z,56.41
2022-07-27T07:49:38.971Z,56.41
2022-07-27T07:50:28.132Z,56.51
2022-07-27T07:51:28.461Z,56.51
2022-07-27T07:52:28.187Z,56.61
2022-07-27T07:53:28.231Z,56.51
2022-07-27T07:54:28.254Z,56.51
2022-07-27T07:55:28.737Z,56.51
2022-07-27T07:56:28.316Z,56.32
2022-07-27T07:57:28.651Z,56.81
2022-07-27T07:58:28.384Z,56.81
2022-07-27T07:59:28.412Z,56.61
2022-07-27T08:00:28.448Z,56.90
2022-07-27T08:01:28.532Z,56.61
2022-07-27T08:02:28.553Z,56.61
2022-07-27T08:03:28.920Z,56.61
2022-07-27T08:04:28.567Z,56.71
2022-07-27T08:05:28.592Z,56.64
2022-07-27T08:06:28.629Z,56.81
2022-07-27T08:07:28.706Z,56.41
2022-07-27T08:08:28.684Z,56.32
2022-07-27T08:09:28.718Z,56.64
2022-07-27T08:10:28.752Z,56.71
2022-07-27T08:11:28.782Z,56.74
2022-07-27T08:12:28.810Z,56.81
2022-07-27T08:13:28.846Z,56.32
2022-07-27T08:14:28.873Z,56.61
2022-07-27T08:16:28.987Z,56.61
2022-07-27T08:17:29.269Z,56.90
2022-07-27T08:18:29.000Z,56.45
2022-07-27T08:19:29.026Z,56.51
2022-07-27T08:20:29.092Z,56.54
2022-07-27T08:21:29.150Z,56.54
2022-07-27T08:22:29.135Z,56.93
2022-07-27T08:23:29.167Z,56.83
2022-07-27T08:24:29.485Z,56.45
2022-07-27T08:25:29.216Z,56.45
2022-07-27T08:26:29.252Z,56.35
2022-07-27T08:27:29.273Z,56.23
2022-07-27T08:28:34.768Z,56.81
2022-07-27T08:29:34.170Z,56.35
2022-07-27T08:30:30.488Z,56.35
2022-07-27T08:31:51.393Z,56.74
2022-07-27T08:32:29.543Z,56.45
2022-07-27T08:33:29.463Z,56.74
2022-07-27T08:34:29.499Z,56.45
2022-07-27T08:35:29.594Z,56.54
2022-07-27T08:36:29.558Z,56.74
2022-07-27T08:37:29.588Z,56.35
2022-07-27T08:38:29.931Z,56.83
2022-07-27T08:40:35.090Z,56.74
2022-07-27T08:40:40.169Z,56.74
2022-07-27T08:41:29.713Z,56.74
2022-07-27T08:42:29.749Z,57.03
2022-07-27T08:43:29.796Z,56.45
2022-07-27T08:45:29.844Z,57.03
2022-07-27T08:46:30.227Z,56.74
2022-07-27T08:47:29.904Z,56.45
2022-07-27T08:48:29.982Z,56.54
2022-07-27T08:49:42.507Z,56.25
2022-07-27T08:51:30.024Z,56.54
2022-07-27T08:52:30.055Z,56.15
2022-07-27T08:53:41.943Z,56.35
2022-07-27T08:54:30.119Z,56.54
2022-07-27T08:55:30.149Z,56.45
2022-07-27T08:56:30.286Z,56.15
2022-07-27T08:57:30.230Z,56.45
2022-07-27T08:58:30.247Z,56.05
2022-07-27T08:59:30.576Z,55.96
2022-07-27T09:00:30.311Z,55.96
2022-07-27T09:01:30.383Z,56.25
2022-07-27T09:02:30.502Z,56.25
2022-07-27T09:03:30.440Z,56.67
2022-07-27T09:04:30.447Z,56.05
2022-07-27T09:05:36.207Z,55.89
2022-07-27T09:06:30.797Z,55.79
2022-07-27T09:07:31.130Z,55.89
2022-07-27T09:08:31.290Z,56.18
2022-07-27T09:09:30.609Z,55.89
2022-07-27T09:10:30.641Z,55.99
2022-07-27T09:11:30.660Z,55.99
2022-07-27T09:12:30.707Z,55.69
2022-07-27T09:13:31.020Z,55.89
2022-07-27T09:14:30.750Z,55.79
2022-07-27T09:15:34.557Z,56.37
2022-07-27T09:17:02.938Z,56.18
2022-07-27T09:18:30.937Z,55.79
2022-07-27T09:19:30.904Z,55.79
2022-07-27T09:20:31.237Z,55.79
2022-07-27T09:21:30.980Z,55.89
2022-07-27T09:22:31.002Z,55.99
2022-07-27T09:23:31.081Z,55.79
2022-07-27T09:24:46.383Z,55.79
2022-07-27T09:26:03.038Z,55.69
2022-07-27T09:26:33.638Z,55.31
2022-07-27T09:27:31.455Z,55.60
2022-07-27T09:28:31.349Z,55.50
2022-07-27T09:29:31.223Z,55.50
2022-07-27T09:30:31.268Z,55.33
2022-07-27T09:31:31.500Z,55.21
2022-07-27T09:32:31.325Z,55.53
2022-07-27T09:33:31.349Z,55.53
2022-07-27T09:34:31.744Z,55.43
2022-07-27T09:35:31.457Z,55.53
2022-07-27T09:36:31.453Z,55.53
2022-07-27T09:37:31.470Z,55.53
2022-07-27T09:38:31.509Z,55.63
2022-07-27T09:39:31.539Z,55.24
2022-07-27T09:40:31.574Z,55.14
2022-07-27T09:41:31.900Z,54.75
2022-07-27T09:43:06.597Z,55.33
2022-07-27T09:45:32.740Z,55.43
2022-07-27T09:46:31.862Z,54.66
2022-07-27T09:47:32.093Z,54.94
2022-07-27T09:48:31.887Z,55.04
2022-07-27T09:49:31.887Z,55.04
2022-07-27T09:50:35.593Z,55.04
2022-07-27T09:52:01.614Z,54.56
2022-07-27T09:52:31.952Z,54.75
2022-07-27T09:53:42.754Z,54.85
2022-07-27T09:54:32.020Z,54.94
2022-07-27T09:55:32.296Z,54.94
2022-07-27T09:56:32.091Z,54.75
2022-07-27T09:57:32.126Z,54.85
2022-07-27T09:58:32.141Z,54.75
2022-07-27T09:59:32.476Z,54.56
2022-07-27T10:00:32.356Z,54.75
2022-07-27T10:01:32.384Z,54.85
2022-07-27T10:02:32.272Z,55.14
2022-07-27T10:03:32.308Z,54.36
2022-07-27T10:04:32.406Z,54.56
2022-07-27T10:05:32.368Z,54.46
2022-07-27T10:06:47.850Z,54.46
2022-07-27T10:07:32.483Z,54.07
2022-07-27T10:08:32.463Z,54.46
2022-07-27T10:09:32.505Z,54.27
2022-07-27T10:10:32.611Z,54.27
2022-07-27T10:12:32.645Z,54.07
2022-07-27T10:13:32.964Z,54.46
2022-07-27T10:14:32.811Z,54.46
2022-07-27T10:15:32.729Z,54.36
2022-07-27T10:16:32.724Z,54.27
2022-07-27T10:17:32.760Z,54.46
2022-07-27T10:18:32.789Z,54.07
2022-07-27T10:19:32.822Z,54.20
2022-07-27T10:20:33.162Z,54.58
2022-07-27T10:21:32.889Z,54.39
2022-07-27T10:22:32.922Z,54.58
2022-07-27T10:23:32.959Z,54.58
2022-07-27T10:24:33.082Z,53.91
2022-07-27T10:25:37.630Z,54.58
2022-07-27T10:26:33.059Z,54.39
2022-07-27T10:27:33.393Z,54.39
2022-07-27T10:28:33.126Z,53.91
2022-07-27T10:29:33.237Z,53.91
2022-07-27T10:30:33.284Z,54.58
2022-07-27T10:31:33.324Z,53.81
2022-07-27T10:32:33.438Z,54.39
2022-07-27T10:33:34.723Z,54.39
2022-07-27T10:34:33.634Z,54.39
2022-07-27T10:35:33.372Z,54.39
2022-07-27T10:36:33.405Z,54.10
2022-07-27T10:37:33.446Z,54.10
2022-07-27T10:38:33.474Z,54.10
2022-07-27T10:39:33.509Z,54.00
2022-07-27T10:40:33.537Z,54.10
2022-07-27T10:41:33.878Z,54.29
2022-07-27T10:42:33.618Z,54.10
2022-07-27T10:43:33.648Z,53.61
2022-07-27T10:44:33.685Z,53.71
2022-07-27T10:46:00.083Z,52.94
2022-07-27T10:46:33.791Z,51.79
2022-07-27T10:47:33.786Z,50.41
2022-07-27T10:48:34.205Z,49.44
2022-07-27T10:49:33.861Z,47.78
2022-07-27T10:50:33.891Z,47.69
2022-07-27T10:51:33.927Z,48.18
2022-07-27T10:52:33.969Z,48.83
2022-07-27T10:53:55.092Z,48.25
2022-07-27T10:54:34.030Z,48.05
2022-07-27T10:55:34.462Z,46.79
2022-07-27T10:56:34.128Z,46.79
2022-07-27T10:57:34.257Z,47.18
2022-07-27T10:58:34.365Z,47.47
2022-07-27T11:00:34.352Z,48.73
2022-07-27T11:01:34.337Z,48.61
2022-07-27T11:02:34.629Z,47.38
2022-07-27T11:03:34.443Z,47.74
2022-07-27T11:04:34.701Z,47.16
2022-07-27T11:06:04.745Z,48.13
2022-07-27T11:06:55.489Z,48.32
2022-07-27T11:07:44.613Z,48.03
2022-07-27T11:08:37.021Z,48.61
2022-07-27T11:10:05.090Z,47.55
2022-07-27T11:10:34.665Z,47.06
2022-07-27T11:11:34.685Z,48.10
2022-07-27T11:12:34.713Z,47.72
2022-07-27T11:13:38.720Z,47.72
2022-07-27T11:14:34.773Z,47.42
2022-07-27T11:15:34.814Z,47.72
2022-07-27T11:16:54.180Z,48.10
2022-07-27T11:17:58.405Z,48.97
2022-07-27T11:18:39.143Z,49.07
2022-07-27T11:19:34.878Z,48.88
2022-07-27T11:20:34.971Z,47.81
2022-07-27T11:21:34.956Z,47.72
2022-07-27T11:23:51.777Z,48.88
2022-07-27T11:24:35.254Z,49.27
2022-07-27T11:25:35.075Z,49.07
2022-07-27T11:26:35.204Z,49.17
2022-07-27T11:27:35.633Z,49.10
2022-07-27T11:28:35.290Z,48.88
2022-07-27T11:29:35.609Z,48.80
2022-07-27T11:30:35.392Z,48.61
2022-07-27T11:31:54.678Z,48.32
2022-07-27T11:33:35.384Z,48.10
2022-07-27T11:34:35.405Z,47.62
2022-07-27T11:35:35.753Z,48.10
2022-07-27T11:36:35.459Z,48.10
2022-07-27T11:37:35.591Z,47.72
2022-07-27T11:38:35.655Z,48.00
2022-07-27T11:39:59.124Z,48.39
2022-07-27T11:40:59.924Z,48.20
2022-07-27T11:42:07.818Z,48.10
2022-07-27T11:42:35.796Z,46.94
2022-07-27T11:43:37.087Z,47.52
2022-07-27T11:44:35.731Z,47.81
2022-07-27T11:45:35.929Z,48.00
2022-07-27T11:46:35.770Z,47.81
2022-07-27T11:47:35.824Z,47.13
2022-07-27T11:49:03.928Z,47.03
2022-07-27T11:50:35.960Z,47.33
2022-07-27T11:52:36.208Z,48.00
2022-07-27T11:53:35.997Z,47.62
2022-07-27T11:54:36.114Z,47.91
2022-07-27T11:55:36.413Z,47.42
2022-07-27T11:56:36.137Z,46.65
2022-07-27T11:57:36.137Z,47.23
2022-07-27T11:58:36.171Z,47.62
2022-07-27T11:59:36.199Z,48.10
2022-07-27T12:00:36.316Z,48.10
2022-07-27T12:01:36.223Z,48.10
2022-07-27T12:02:36.668Z,47.72
2022-07-27T12:03:47.683Z,47.33
2022-07-27T12:04:36.390Z,47.13
2022-07-27T12:05:36.627Z,47.42
2022-07-27T12:06:36.448Z,47.23
2022-07-27T12:07:36.558Z,47.06
2022-07-27T12:08:36.573Z,47.13
2022-07-27T12:09:38.719Z,46.07
2022-07-27T12:10:37.807Z,46.07
2022-07-27T12:11:36.554Z,46.36
2022-07-27T12:12:36.806Z,46.84
2022-07-27T12:13:36.637Z,47.03
2022-07-27T12:14:36.669Z,46.77
2022-07-27T12:15:46.585Z,47.16
2022-07-27T12:16:37.095Z,46.86
2022-07-27T12:17:36.874Z,46.48
2022-07-27T12:18:36.854Z,46.58
2022-07-27T12:19:36.819Z,46.86
2022-07-27T12:20:36.879Z,46.28
2022-07-27T12:21:36.880Z,47.06
2022-07-27T12:22:36.997Z,46.77
2022-07-27T12:23:37.430Z,46.09
2022-07-27T12:24:37.137Z,45.99
2022-07-27T12:25:37.110Z,45.70
2022-07-27T12:26:37.344Z,46.19
2022-07-27T12:27:37.164Z,46.58
2022-07-27T12:28:37.124Z,46.28
2022-07-27T12:29:37.136Z,46.28
2022-07-27T12:30:37.568Z,46.48
2022-07-27T12:31:37.222Z,45.99
2022-07-27T12:33:37.639Z,45.99
2022-07-27T12:34:37.348Z,46.41
2022-07-27T12:35:40.692Z,46.41
2022-07-27T12:36:37.446Z,46.28
2022-07-27T12:37:37.731Z,46.19
2022-07-27T12:38:37.519Z,45.72
2022-07-27T12:40:37.493Z,45.82
2022-07-27T12:41:37.588Z,45.80
2022-07-27T12:42:37.759Z,46.01
2022-07-27T12:43:37.612Z,46.01
2022-07-27T12:44:37.992Z,45.82
2022-07-27T12:45:37.775Z,45.34
2022-07-27T12:46:37.860Z,45.24
2022-07-27T12:47:37.765Z,45.62
2022-07-27T12:48:37.949Z,45.43
2022-07-27T12:49:40.842Z,45.34
2022-07-27T12:50:37.816Z,45.04
2022-07-27T12:52:38.519Z,44.65
2022-07-27T12:53:38.011Z,44.17
2022-07-27T12:54:37.983Z,44.17
2022-07-27T12:55:38.139Z,44.46
2022-07-27T12:56:38.105Z,44.85
2022-07-27T12:57:54.720Z,44.95
2022-07-27T12:58:38.143Z,44.75
2022-07-27T12:59:38.167Z,44.37
2022-07-27T13:00:38.169Z,44.56
2022-07-27T13:01:38.505Z,43.20
2022-07-27T13:02:38.331Z,43.78
2022-07-27T13:03:38.267Z,44.46
2022-07-27T13:04:38.340Z,44.46
2022-07-27T13:05:38.705Z,44.17
2022-07-27T13:06:38.337Z,43.98
2022-07-27T13:07:38.572Z,43.78
2022-07-27T13:08:38.582Z,43.40
2022-07-27T13:10:02.902Z,43.68
2022-07-27T13:10:38.472Z,43.30
2022-07-27T13:11:38.499Z,43.88
2022-07-27T13:12:38.937Z,43.40
2022-07-27T13:13:38.634Z,43.68
2022-07-27T13:14:38.626Z,43.98
2022-07-27T13:15:38.637Z,43.78
2022-07-27T13:16:38.755Z,43.78
2022-07-27T13:17:38.773Z,43.88
2022-07-27T13:18:39.057Z,43.78
2022-07-27T13:20:38.852Z,43.98
2022-07-27T13:21:38.830Z,43.78
2022-07-27T13:23:38.890Z,43.49
2022-07-27T13:24:39.222Z,43.40
2022-07-27T13:25:43.239Z,44.17
2022-07-27T13:26:39.096Z,44.17
2022-07-27T13:27:39.023Z,43.98
2022-07-27T13:28:39.174Z,44.65
2022-07-27T13:29:39.089Z,44.56
2022-07-27T13:30:39.502Z,44.48
2022-07-27T13:31:41.441Z,44.17
2022-07-27T13:32:39.304Z,43.68
2022-07-27T13:33:39.336Z,43.68
2022-07-27T13:34:39.416Z,43.59
2022-07-27T13:35:39.299Z,44.07
2022-07-27T13:36:39.420Z,43.41
2022-07-27T13:37:39.782Z,42.52
2022-07-27T13:38:39.467Z,42.52
2022-07-27T13:39:39.439Z,42.43
2022-07-27T13:40:39.580Z,42.23